createdAt,value
2019-03-21T00:02:17.333Z,6.03
2019-03-21T00:04:47.539Z,6.37
2019-03-21T00:07:15.715Z,6.63
2019-03-21T00:10:10.157Z,5.47
2019-03-21T00:12:38.398Z,6.13
2019-03-21T00:15:13.448Z,5.43
2019-03-21T00:17:47.759Z,6.73
2019-03-21T00:20:16.594Z,6.20
2019-03-21T00:22:45.782Z,6.00
2019-03-21T00:25:17.331Z,6.60
2019-03-21T00:27:45.599Z,5.30
2019-03-21T00:30:16.233Z,6.10
2019-03-21T00:32:44.359Z,5.70
2019-03-21T00:35:12.460Z,5.90
2019-03-21T00:37:40.627Z,5.93
2019-03-21T00:40:11.897Z,6.70
2019-03-21T00:42:40.053Z,6.53
2019-03-21T00:45:09.929Z,6.13
2019-03-21T00:47:39.135Z,5.83
2019-03-21T00:52:37.679Z,6.27
2019-03-21T00:55:07.500Z,5.40
2019-03-21T00:57:35.681Z,6.37
2019-03-21T01:00:04.704Z,6.07
2019-03-21T01:02:33.158Z,5.73
2019-03-21T01:05:01.258Z,6.07
2019-03-21T01:07:30.235Z,6.50
2019-03-21T01:09:58.359Z,6.90
2019-03-21T01:12:27.455Z,6.27
2019-03-21T01:14:55.454Z,6.60
2019-03-21T01:17:23.641Z,6.00
2019-03-21T01:19:51.606Z,5.70
2019-03-21T01:22:19.745Z,6.90
2019-03-21T01:24:47.909Z,5.83
2019-03-21T01:27:16.035Z,5.67
2019-03-21T01:29:44.118Z,6.03
2019-03-21T01:32:14.075Z,6.63
2019-03-21T01:34:42.035Z,7.13
2019-03-21T01:37:22.232Z,6.97
2019-03-21T01:39:50.377Z,7.33
2019-03-21T01:42:18.372Z,7.13
2019-03-21T01:44:46.580Z,6.33
2019-03-21T01:47:14.746Z,6.40
2019-03-21T01:49:42.999Z,7.10
2019-03-21T01:52:11.074Z,6.00
2019-03-21T01:54:39.142Z,7.13
2019-03-21T01:57:07.228Z,6.93
2019-03-21T01:59:35.347Z,6.67
2019-03-21T02:02:04.405Z,6.60
2019-03-21T02:04:32.534Z,6.57
2019-03-21T02:07:00.628Z,7.00
2019-03-21T02:09:30.480Z,7.37
2019-03-21T02:11:58.560Z,6.73
2019-03-21T02:14:26.582Z,6.67
2019-03-21T02:16:54.716Z,6.67
2019-03-21T02:19:22.690Z,6.07
2019-03-21T02:21:50.855Z,6.30
2019-03-21T02:24:18.915Z,6.80
2019-03-21T02:26:46.959Z,6.57
2019-03-21T02:29:16.940Z,5.97
2019-03-21T02:31:45.118Z,5.97
2019-03-21T02:34:13.335Z,6.93
2019-03-21T02:36:42.188Z,7.03
2019-03-21T02:39:10.320Z,6.63
2019-03-21T02:41:38.437Z,6.37
2019-03-21T02:44:06.627Z,7.57
2019-03-21T02:46:34.787Z,6.40
2019-03-21T02:49:06.016Z,6.73
2019-03-21T02:51:34.027Z,6.73
2019-03-21T02:54:02.222Z,6.00
2019-03-21T02:56:30.322Z,6.70
2019-03-21T02:58:58.550Z,7.00
2019-03-21T03:01:26.661Z,7.43
2019-03-21T03:03:54.941Z,7.43
2019-03-21T03:06:24.056Z,7.37
2019-03-21T03:08:52.079Z,6.77
2019-03-21T03:11:20.238Z,7.87
2019-03-21T03:13:49.565Z,7.50
2019-03-21T03:16:17.943Z,7.23
2019-03-21T03:18:46.130Z,8.00
2019-03-21T03:21:14.155Z,8.13
2019-03-21T03:23:43.378Z,6.97
2019-03-21T03:26:11.501Z,8.10
2019-03-21T03:28:39.893Z,6.97
2019-03-21T03:31:07.990Z,7.10
2019-03-21T03:33:36.124Z,7.77
2019-03-21T03:36:04.335Z,7.87
2019-03-21T03:38:32.754Z,7.77
2019-03-21T03:41:00.854Z,8.17
2019-03-21T03:43:29.208Z,9.40
2019-03-21T03:45:59.063Z,8.37
2019-03-21T03:48:27.059Z,8.73
2019-03-21T03:50:55.169Z,8.23
2019-03-21T03:53:23.294Z,8.03
2019-03-21T03:55:51.415Z,9.90
2019-03-21T03:58:20.100Z,9.27
2019-03-21T04:00:48.292Z,9.53
2019-03-21T04:03:16.371Z,8.30
2019-03-21T04:05:44.567Z,8.80
2019-03-21T04:08:12.674Z,8.83
2019-03-21T04:10:42.436Z,10.07
2019-03-21T04:13:22.389Z,9.13
2019-03-21T04:15:53.365Z,8.70
2019-03-21T04:18:20.653Z,9.90
2019-03-21T04:20:49.248Z,9.80
2019-03-21T04:23:18.028Z,9.50
2019-03-21T04:25:52.218Z,10.40
2019-03-21T04:28:20.236Z,9.73
2019-03-21T04:30:48.542Z,9.57
2019-03-21T04:33:16.800Z,9.53
2019-03-21T04:35:44.821Z,8.93
2019-03-21T04:38:14.137Z,10.13
2019-03-21T04:40:42.195Z,10.70
2019-03-21T04:43:10.337Z,9.60
2019-03-21T04:45:38.500Z,10.00
2019-03-21T04:48:06.698Z,10.33
2019-03-21T04:50:34.756Z,11.53
2019-03-21T04:53:04.218Z,9.87
2019-03-21T04:55:32.403Z,10.07
2019-03-21T04:58:00.557Z,10.20
2019-03-21T05:00:29.940Z,9.43
2019-03-21T05:02:58.977Z,11.83
2019-03-21T05:05:27.167Z,11.80
2019-03-21T05:07:55.073Z,10.50
2019-03-21T05:10:24.230Z,11.80
2019-03-21T05:12:52.260Z,13.43
2019-03-21T05:15:25.612Z,12.30
2019-03-21T05:17:55.163Z,11.27
2019-03-21T05:20:24.774Z,13.10
2019-03-21T05:22:53.096Z,14.13
2019-03-21T05:25:21.290Z,12.57
2019-03-21T05:27:50.484Z,13.47
2019-03-21T05:30:31.712Z,13.30
2019-03-21T05:32:59.702Z,12.90
2019-03-21T05:35:28.952Z,14.27
2019-03-21T05:37:57.059Z,13.33
2019-03-21T05:40:26.250Z,12.63
2019-03-21T05:43:00.887Z,14.90
2019-03-21T05:45:29.136Z,13.57
2019-03-21T05:47:57.151Z,13.63
2019-03-21T05:50:25.360Z,12.93
2019-03-21T05:52:53.440Z,13.40
2019-03-21T05:55:21.330Z,14.10
2019-03-21T05:57:49.336Z,12.20
2019-03-21T06:00:21.090Z,11.30
2019-03-21T06:02:49.220Z,13.10
2019-03-21T06:05:17.312Z,13.37
2019-03-21T06:07:50.644Z,13.13
2019-03-21T06:10:18.618Z,13.63
2019-03-21T06:12:47.927Z,13.20
2019-03-21T06:15:21.457Z,11.77
2019-03-21T06:18:21.790Z,12.03
2019-03-21T06:21:03.264Z,11.93
2019-03-21T06:24:06.308Z,12.47
2019-03-21T06:26:57.499Z,12.10
2019-03-21T06:29:25.546Z,13.07
2019-03-21T06:31:53.644Z,13.50
2019-03-21T06:34:21.671Z,11.83
2019-03-21T06:36:49.622Z,13.50
2019-03-21T06:39:17.777Z,13.13
2019-03-21T06:41:46.397Z,12.67
2019-03-21T06:44:16.601Z,13.23
2019-03-21T06:46:49.420Z,12.90
2019-03-21T06:49:14.630Z,14.60
2019-03-21T06:51:42.903Z,13.60
2019-03-21T06:54:10.941Z,14.17
2019-03-21T06:56:39.210Z,13.60
2019-03-21T06:59:07.213Z,14.47
2019-03-21T07:01:35.323Z,14.57
2019-03-21T07:04:07.274Z,14.30
2019-03-21T07:06:33.395Z,14.23
2019-03-21T07:09:01.652Z,14.13
2019-03-21T07:11:29.871Z,13.13
2019-03-21T07:13:57.987Z,13.37
2019-03-21T07:16:26.085Z,15.07
2019-03-21T07:18:54.173Z,15.27
2019-03-21T07:21:22.235Z,15.53
2019-03-21T07:23:50.264Z,15.17
2019-03-21T07:26:18.480Z,16.13
2019-03-21T07:28:46.561Z,15.40
2019-03-21T07:31:14.615Z,16.17
2019-03-21T07:33:42.768Z,15.63
2019-03-21T07:36:10.980Z,15.50
2019-03-21T07:38:39.137Z,15.30
2019-03-21T07:41:07.158Z,16.77
2019-03-21T07:43:35.268Z,13.90
2019-03-21T07:46:03.494Z,14.67
2019-03-21T07:48:31.625Z,15.13
2019-03-21T07:50:59.734Z,16.57
2019-03-21T07:53:28.960Z,15.50
2019-03-21T07:55:56.965Z,15.33
2019-03-21T07:58:25.065Z,14.63
2019-03-21T08:00:53.333Z,17.23
2019-03-21T08:03:21.418Z,16.70
2019-03-21T08:05:49.560Z,14.77
2019-03-21T08:08:17.702Z,15.90
2019-03-21T08:10:45.833Z,15.90
2019-03-21T08:13:14.031Z,15.40
2019-03-21T08:15:42.168Z,15.27
2019-03-21T08:18:11.389Z,15.17
2019-03-21T08:20:39.360Z,15.77
2019-03-21T08:23:07.857Z,15.80
2019-03-21T08:25:36.013Z,15.90
2019-03-21T08:28:04.527Z,17.80
2019-03-21T08:30:36.292Z,16.40
2019-03-21T08:33:04.746Z,16.57
2019-03-21T08:35:33.902Z,18.70
2019-03-21T08:38:02.008Z,17.03
2019-03-21T08:40:31.878Z,17.23
2019-03-21T08:42:59.894Z,15.40
2019-03-21T08:45:28.038Z,16.00
2019-03-21T08:47:56.124Z,17.70
2019-03-21T08:50:26.077Z,15.90
2019-03-21T08:52:54.209Z,17.70
2019-03-21T08:55:24.124Z,19.20
2019-03-21T08:57:52.278Z,19.20
2019-03-21T09:00:20.434Z,22.33
2019-03-21T09:02:48.522Z,19.50
2019-03-21T09:05:16.640Z,19.50
2019-03-21T09:07:44.702Z,21.07
2019-03-21T09:10:12.941Z,20.33
2019-03-21T09:12:42.652Z,19.23
2019-03-21T09:15:12.288Z,20.70
2019-03-21T09:17:40.457Z,18.07
2019-03-21T09:20:09.178Z,19.67
2019-03-21T09:22:38.598Z,20.20
2019-03-21T09:25:06.812Z,17.57
2019-03-21T09:27:34.890Z,19.60
2019-03-21T09:30:03.760Z,19.00
2019-03-21T09:32:31.882Z,17.97
2019-03-21T09:34:59.890Z,18.37
2019-03-21T09:37:28.075Z,19.57
2019-03-21T09:39:56.172Z,17.50
2019-03-21T09:42:24.401Z,16.40
2019-03-21T09:44:52.503Z,19.53
2019-03-21T09:47:21.654Z,16.97
2019-03-21T09:49:51.550Z,17.27
2019-03-21T09:52:19.750Z,16.83
2019-03-21T09:54:47.951Z,16.33
2019-03-21T09:57:17.360Z,17.20
2019-03-21T09:59:45.508Z,18.63
2019-03-21T10:02:13.728Z,19.23
2019-03-21T10:04:41.997Z,19.93
2019-03-21T10:07:10.243Z,17.23
2019-03-21T10:09:39.554Z,17.53
2019-03-21T10:12:07.799Z,17.80
2019-03-21T10:14:35.846Z,18.07
2019-03-21T10:17:03.946Z,18.33
2019-03-21T10:19:32.173Z,16.87
2019-03-21T10:22:00.307Z,17.10
2019-03-21T10:24:28.477Z,16.60
2019-03-21T10:26:56.777Z,18.30
2019-03-21T10:29:24.905Z,15.67
2019-03-21T10:31:52.993Z,17.33
2019-03-21T10:34:21.175Z,17.53
2019-03-21T10:36:49.269Z,16.87
2019-03-21T10:39:17.293Z,18.47
2019-03-21T10:41:47.097Z,15.90
2019-03-21T10:44:15.332Z,16.70
2019-03-21T10:46:43.441Z,15.23
2019-03-21T10:49:11.531Z,17.20
2019-03-21T10:51:39.659Z,17.27
2019-03-21T10:54:07.702Z,16.70
2019-03-21T10:56:35.873Z,15.40
2019-03-21T10:59:04.084Z,17.20
2019-03-21T11:01:32.319Z,16.73
2019-03-21T11:04:00.339Z,18.97
2019-03-21T11:06:28.548Z,14.70
2019-03-21T11:08:56.693Z,15.33
2019-03-21T11:11:24.843Z,16.70
2019-03-21T11:13:52.969Z,14.33
2019-03-21T11:16:21.009Z,17.27
2019-03-21T11:18:49.125Z,17.77
2019-03-21T11:21:17.138Z,15.60
2019-03-21T11:23:45.331Z,14.60
2019-03-21T11:26:15.249Z,14.43
2019-03-21T11:28:43.392Z,15.83
2019-03-21T11:31:11.555Z,13.57
2019-03-21T11:33:40.733Z,14.07
2019-03-21T11:36:08.757Z,15.23
2019-03-21T11:38:36.916Z,15.43
2019-03-21T11:41:05.264Z,15.27
2019-03-21T11:43:33.333Z,16.40
2019-03-21T11:46:02.513Z,15.03
2019-03-21T11:48:30.677Z,14.57
2019-03-21T11:51:00.018Z,15.37
2019-03-21T11:53:28.180Z,14.63
2019-03-21T11:55:56.548Z,13.87
2019-03-21T11:58:24.734Z,14.20
2019-03-21T12:00:52.990Z,14.93
2019-03-21T12:03:25.081Z,14.00
2019-03-21T12:05:53.310Z,11.57
2019-03-21T12:08:21.604Z,13.80
2019-03-21T12:10:49.751Z,14.70
2019-03-21T12:13:17.868Z,15.77
2019-03-21T12:15:45.837Z,14.40
2019-03-21T12:18:13.944Z,14.70
2019-03-21T12:20:43.865Z,14.67
2019-03-21T12:23:12.068Z,13.97
2019-03-21T12:25:42.013Z,13.20
2019-03-21T12:28:10.251Z,13.23
2019-03-21T12:30:42.268Z,13.83
2019-03-21T12:33:10.904Z,11.70
2019-03-21T12:35:39.106Z,13.57
2019-03-21T12:38:07.456Z,12.07
2019-03-21T12:40:35.868Z,13.07
2019-03-21T12:43:05.268Z,13.20
2019-03-21T12:45:33.373Z,12.10
2019-03-21T12:48:01.370Z,11.90
2019-03-21T12:50:29.536Z,11.63
2019-03-21T12:52:57.790Z,11.97
2019-03-21T12:55:25.786Z,12.53
2019-03-21T12:57:53.907Z,13.37
2019-03-21T13:00:42.128Z,12.77
2019-03-21T13:03:10.940Z,12.93
2019-03-21T13:05:40.650Z,13.00
2019-03-21T13:08:09.131Z,11.77
2019-03-21T13:10:37.383Z,11.50
2019-03-21T13:13:05.859Z,10.67
2019-03-21T13:15:34.525Z,10.87
2019-03-21T13:18:02.822Z,10.27
2019-03-21T13:20:31.020Z,12.00
2019-03-21T13:22:59.272Z,11.43
2019-03-21T13:25:27.691Z,12.47
2019-03-21T13:27:55.822Z,10.40
2019-03-21T13:30:23.874Z,11.23
2019-03-21T13:32:52.066Z,11.10
2019-03-21T13:35:31.708Z,11.43
2019-03-21T13:37:50.052Z,11.87
2019-03-21T13:40:18.122Z,10.53
2019-03-21T13:42:46.198Z,9.50
2019-03-21T13:45:14.195Z,10.77
2019-03-21T13:47:42.319Z,11.50
2019-03-21T13:50:10.603Z,10.07
2019-03-21T13:52:38.581Z,11.40
2019-03-21T13:55:06.965Z,11.17
2019-03-21T13:57:35.023Z,9.87
2019-03-21T14:00:03.618Z,10.43
2019-03-21T14:02:31.879Z,11.47
2019-03-21T14:04:59.915Z,9.13
2019-03-21T14:07:28.117Z,12.77
2019-03-21T14:09:56.233Z,9.90
2019-03-21T14:12:24.351Z,11.47
2019-03-21T14:14:52.445Z,9.43
2019-03-21T14:17:22.439Z,11.97
2019-03-21T14:19:50.662Z,8.53
2019-03-21T14:22:21.224Z,11.50
2019-03-21T14:24:48.780Z,9.03
2019-03-21T14:27:17.007Z,10.00
2019-03-21T14:29:45.117Z,8.77
2019-03-21T14:32:13.205Z,10.10
2019-03-21T14:34:41.180Z,11.73
2019-03-21T14:37:09.317Z,10.00
2019-03-21T14:39:37.408Z,11.25
2019-03-21T14:42:05.524Z,8.75
2019-03-21T14:44:33.669Z,9.25
2019-03-21T14:47:01.757Z,11.70
2019-03-21T14:49:29.926Z,12.73
2019-03-21T14:51:58.231Z,12.50
2019-03-21T14:54:26.479Z,10.63
2019-03-21T14:56:54.607Z,13.28
2019-03-21T14:59:22.610Z,11.05
2019-03-21T15:01:50.674Z,10.55
2019-03-21T15:04:18.745Z,9.95
2019-03-21T15:06:46.928Z,13.20
2019-03-21T15:09:16.257Z,13.68
2019-03-21T15:11:44.559Z,9.98
2019-03-21T15:14:12.754Z,12.65
2019-03-21T15:16:40.887Z,12.15
2019-03-21T15:19:09.010Z,9.55
2019-03-21T15:21:37.147Z,10.93
2019-03-21T15:24:05.345Z,12.88
2019-03-21T15:26:33.331Z,12.28
2019-03-21T15:29:01.514Z,13.53
2019-03-21T15:31:29.660Z,10.45
2019-03-21T15:33:57.790Z,12.63
2019-03-21T15:36:27.666Z,11.30
2019-03-21T15:38:55.745Z,11.12
2019-03-21T15:41:23.798Z,11.00
2019-03-21T15:43:52.066Z,9.83
2019-03-21T15:46:20.166Z,11.65
2019-03-21T15:48:48.193Z,13.03
2019-03-21T15:51:16.344Z,11.75
2019-03-21T15:53:54.813Z,11.68
2019-03-21T15:56:14.455Z,12.85
2019-03-21T15:58:42.637Z,12.73
2019-03-21T16:01:10.829Z,12.63
2019-03-21T16:03:38.994Z,12.18
2019-03-21T16:06:07.166Z,11.40
2019-03-21T16:08:35.324Z,12.45
2019-03-21T16:11:05.060Z,10.30
2019-03-21T16:13:33.208Z,13.20
2019-03-21T16:16:13.152Z,10.58
2019-03-21T16:18:41.393Z,10.82
2019-03-21T16:21:09.661Z,12.25
2019-03-21T16:23:37.730Z,10.30
2019-03-21T16:26:05.815Z,11.93
2019-03-21T16:28:34.044Z,11.80
2019-03-21T16:31:02.350Z,12.37
2019-03-21T16:33:30.573Z,12.68
2019-03-21T16:35:58.844Z,12.07
2019-03-21T16:38:26.972Z,12.65
2019-03-21T16:40:55.129Z,11.78
2019-03-21T16:43:23.326Z,12.63
2019-03-21T16:45:51.404Z,11.05
2019-03-21T16:48:19.690Z,11.75
2019-03-21T16:50:47.824Z,11.70
2019-03-21T16:53:16.008Z,12.60
2019-03-21T16:55:45.466Z,12.68
2019-03-21T16:58:13.592Z,12.82
2019-03-21T17:00:41.773Z,17.57
2019-03-21T17:03:09.852Z,21.20
2019-03-21T17:05:38.051Z,21.75
2019-03-21T17:08:11.451Z,21.47
2019-03-21T17:10:36.164Z,24.50
2019-03-21T17:13:04.973Z,23.83
2019-03-21T17:15:34.274Z,26.57
2019-03-21T17:18:02.375Z,28.70
2019-03-21T17:20:30.521Z,23.03
2019-03-21T17:22:58.628Z,21.07
2019-03-21T17:25:26.931Z,21.13
2019-03-21T17:27:55.120Z,20.27
2019-03-21T17:30:24.394Z,25.10
2019-03-21T17:32:52.552Z,22.33
2019-03-21T17:35:20.607Z,25.80
2019-03-21T17:37:48.699Z,25.70
2019-03-21T17:40:17.094Z,22.53
2019-03-21T17:42:46.227Z,22.87
2019-03-21T17:45:14.749Z,25.37
2019-03-21T17:47:43.069Z,23.13
2019-03-21T17:50:12.294Z,22.07
2019-03-21T17:52:40.674Z,23.73
2019-03-21T17:55:09.307Z,23.93
2019-03-21T17:57:37.587Z,24.77
2019-03-21T18:00:08.981Z,24.00
2019-03-21T18:02:37.134Z,25.43
2019-03-21T18:05:06.099Z,23.43
2019-03-21T18:07:34.225Z,22.33
2019-03-21T18:10:02.751Z,21.53
2019-03-21T18:12:30.985Z,22.07
2019-03-21T18:14:59.155Z,21.57
2019-03-21T18:17:27.265Z,24.00
2019-03-21T18:19:55.276Z,22.80
2019-03-21T18:22:23.413Z,24.73
2019-03-21T18:24:54.033Z,24.00
2019-03-21T18:27:21.482Z,24.23
2019-03-21T18:29:49.807Z,26.17
2019-03-21T18:32:18.120Z,25.53
2019-03-21T18:37:13.963Z,25.80
2019-03-21T18:39:42.163Z,30.33
2019-03-21T18:42:10.431Z,24.93
2019-03-21T18:44:38.475Z,23.23
2019-03-21T18:47:06.723Z,26.00
2019-03-21T18:49:34.750Z,28.57
2019-03-21T18:52:03.252Z,26.50
2019-03-21T18:54:31.466Z,26.43
2019-03-21T18:57:12.187Z,28.33
2019-03-21T18:59:40.352Z,27.73
2019-03-21T19:02:08.545Z,27.87
2019-03-21T19:04:36.659Z,26.40
2019-03-21T19:07:05.023Z,32.17
2019-03-21T19:09:33.295Z,28.93
2019-03-21T19:12:01.470Z,29.27
2019-03-21T19:14:29.747Z,24.90
2019-03-21T19:16:57.978Z,23.87
2019-03-21T19:19:27.502Z,22.60
2019-03-21T19:21:55.560Z,21.47
2019-03-21T19:24:23.798Z,20.80
2019-03-21T19:26:53.789Z,20.17
2019-03-21T19:29:22.021Z,20.63
2019-03-21T19:31:50.214Z,19.33
2019-03-21T19:34:18.343Z,20.23
2019-03-21T19:36:48.094Z,25.47
2019-03-21T19:39:16.259Z,31.30
2019-03-21T19:44:12.467Z,23.13
2019-03-21T19:46:40.705Z,23.53
2019-03-21T19:49:08.886Z,24.30
2019-03-21T19:51:38.242Z,22.17
2019-03-21T19:54:07.574Z,23.20
2019-03-21T19:56:35.726Z,27.23
2019-03-21T19:59:24.916Z,24.47
2019-03-21T20:01:53.157Z,25.77
2019-03-21T20:04:21.290Z,28.40
2019-03-21T20:06:49.556Z,26.67
2019-03-21T20:09:18.883Z,26.40
2019-03-21T20:11:47.025Z,24.80
2019-03-21T20:14:16.332Z,23.57
2019-03-21T20:16:44.583Z,28.17
2019-03-21T20:19:12.827Z,27.83
2019-03-21T20:24:08.823Z,28.87
2019-03-21T20:26:37.355Z,26.67
2019-03-21T20:29:05.514Z,24.13
2019-03-21T20:31:33.610Z,26.43
2019-03-21T20:34:01.710Z,26.03
2019-03-21T20:36:31.687Z,26.17
2019-03-21T20:38:59.732Z,29.80
2019-03-21T20:41:27.804Z,26.03
2019-03-21T20:43:56.016Z,28.83
2019-03-21T20:46:24.186Z,26.70
2019-03-21T20:48:50.800Z,31.67
2019-03-21T20:51:18.869Z,29.40
2019-03-21T20:53:47.073Z,26.27
2019-03-21T20:56:18.215Z,25.50
2019-03-21T20:58:46.278Z,27.43
2019-03-21T21:01:14.369Z,30.10
2019-03-21T21:03:42.579Z,26.23
2019-03-21T21:06:10.807Z,26.17
2019-03-21T21:08:40.700Z,25.57
2019-03-21T21:11:08.809Z,27.03
2019-03-21T21:13:36.835Z,28.47
2019-03-21T21:16:05.095Z,24.97
2019-03-21T21:18:33.260Z,24.70
2019-03-21T21:21:01.388Z,23.73
2019-03-21T21:23:29.636Z,25.63
2019-03-21T21:26:05.481Z,25.10
2019-03-21T21:28:29.015Z,23.33
2019-03-21T21:30:58.402Z,23.97
2019-03-21T21:33:26.556Z,24.17
2019-03-21T21:35:56.510Z,23.40
2019-03-21T21:38:24.715Z,22.33
2019-03-21T21:40:54.759Z,21.40
2019-03-21T21:43:22.862Z,22.70
2019-03-21T21:45:52.074Z,21.97
2019-03-21T21:48:20.198Z,22.00
2019-03-21T21:50:48.354Z,23.03
2019-03-21T21:53:16.438Z,21.47
2019-03-21T21:55:44.703Z,23.50
2019-03-21T21:58:12.867Z,21.93
2019-03-21T22:00:42.095Z,22.03
2019-03-21T22:03:10.220Z,21.77
2019-03-21T22:05:38.361Z,24.43
2019-03-21T22:08:06.610Z,23.57
2019-03-21T22:10:36.044Z,23.27
2019-03-21T22:13:05.986Z,22.70
2019-03-21T22:15:33.981Z,23.77
2019-03-21T22:18:02.064Z,23.80
2019-03-21T22:20:30.058Z,23.60
2019-03-21T22:22:58.139Z,21.80
2019-03-21T22:25:26.238Z,21.17
2019-03-21T22:27:54.412Z,21.93
2019-03-21T22:30:22.670Z,21.27
2019-03-21T22:32:50.818Z,21.00
2019-03-21T22:35:18.821Z,21.83
2019-03-21T22:37:46.921Z,21.83
2019-03-21T22:40:15.589Z,21.37
2019-03-21T22:42:43.558Z,22.40
2019-03-21T22:45:12.590Z,23.17
2019-03-21T22:47:40.871Z,22.07
2019-03-21T22:50:11.094Z,21.70
2019-03-21T22:52:39.194Z,20.63
2019-03-21T22:55:07.324Z,20.67
2019-03-21T23:00:15.345Z,20.60
2019-03-21T23:02:45.610Z,19.23
2019-03-21T23:05:14.338Z,21.23
2019-03-21T23:07:42.526Z,25.70
2019-03-21T23:10:11.290Z,23.17
2019-03-21T23:12:39.303Z,23.13
2019-03-21T23:15:08.519Z,23.80
2019-03-21T23:17:38.580Z,21.13
2019-03-21T23:20:07.148Z,23.67
2019-03-21T23:22:35.299Z,25.20
2019-03-21T23:25:03.830Z,23.20
2019-03-21T23:27:31.951Z,23.33
2019-03-21T23:30:00.019Z,23.90
2019-03-21T23:32:28.202Z,25.47
2019-03-21T23:34:56.217Z,22.77
2019-03-21T23:37:24.456Z,25.57
2019-03-21T23:40:04.312Z,24.73
2019-03-21T23:42:32.630Z,24.90
2019-03-21T23:45:00.877Z,23.63
2019-03-21T23:47:48.081Z,24.37
2019-03-21T23:50:28.503Z,25.33
2019-03-21T23:52:58.517Z,22.17
2019-03-21T23:55:28.431Z,23.20
2019-03-21T23:57:56.536Z,21.43
